Página principal
METAR-TAF:

METAR-TAF

Aeroportos :

Aeroporto Internacional Modibo Keita

Bamako, Mali

latitude: 12-32N, longitude: 007-57W, altura: 380 m

Observação actual do tempo

O boletim foi feito há 33 minutos, às 21:30 UTC
Vento 5 kt de nordeste
Temperatura 23°C
Humidade 44%
Pressão 1015 hPa
Visibilidade: 8000 m

METAR: GABS 202130Z 05005KT 8000 NSC 23/10 Q1015 NOSIG

Hora: 22:03 (22:03 UTC)

Previsão

O boletim foi feito há 4 horas e 45 minutos, às 17:18 UTC
Previsão válida de 20 às 18 UTC a 21 às 24 UTC
Vento 10 kt de nor-nordeste
Visibilidade 10 km ou mais
sem nuvens abaixo de 1500 metros e sem cumulonimbus
Probabilidade 40% :
Temporariamente
de 21 às 06 UTC a 21 às 12 UTC
Visibilidade: 4000 m
poeira extensa

TAF: GABS 201718Z 2018/2124 02010KT CAVOK PROB40 TEMPO 2106/2112 4000 DU

Observações e previsões do tempo de mais de 4000 aeroportos (mensagens METAR e TAF).

As estações disponíveis são os pontos amarelos e vermelhos sobre o mapa.

Mova o rato sobre o mapa para ver o nome da estação.

Depois clique no ponto para visualizar as observações e previsões meteorológicas.

Para alterar o mapa : clique nos botões verdes com uma cruz preta para aumentar o zoom; no botão verde com uma pitada de zoom; ou nas setas verdes para mapas adjacentes.


METAR-TAF: